Time;durP1;ratioP1;P1;durP2;ratioP2;P2;SDS_P1;SDS_P2;PMS_P1;PMS_P2;Temp;Humidity;BMP_temperature;BMP_pressure;BME280_temperature;BME280_humidity;BME280_pressure;Samples;Min_cycle;Max_cycle;Signal;HPM_P1;HPM_P2
2021/10/15 00:02:10;;;;;;;25.27;15.93;;;14.70;98.40;;;;;;4918237;29;20405;-68
2021/10/15 00:04:36;;;;;;;21.50;15.48;;;14.70;98.50;;;;;;4917184;29;20036;-68
2021/10/15 00:07:01;;;;;;;23.00;16.67;;;14.70;98.50;;;;;;4917335;29;20362;-69
2021/10/15 00:09:27;;;;;;;25.33;16.63;;;14.70;98.50;;;;;;4917417;29;20601;-68
2021/10/15 00:11:52;;;;;;;24.30;15.77;;;14.70;98.50;;;;;;4917306;29;20047;-68
2021/10/15 00:14:18;;;;;;;23.90;16.50;;;14.70;98.50;;;;;;4916589;29;20036;-68
2021/10/15 00:16:44;;;;;;;21.20;15.00;;;14.70;98.50;;;;;;4916819;29;20404;-68
2021/10/15 00:19:09;;;;;;;20.42;14.85;;;14.70;98.60;;;;;;4917067;29;20032;-68
2021/10/15 00:21:35;;;;;;;24.23;15.68;;;14.70;98.60;;;;;;4926314;29;20612;-68
2021/10/15 00:24:00;;;;;;;23.42;16.23;;;14.70;98.60;;;;;;4935358;29;20024;-68
2021/10/15 00:26:25;;;;;;;20.23;13.68;;;14.60;98.60;;;;;;4925237;29;20059;-68
2021/10/15 00:28:51;;;;;;;18.83;13.73;;;14.60;98.60;;;;;;4916917;29;20111;-69
2021/10/15 00:31:17;;;;;;;18.67;13.88;;;14.60;98.60;;;;;;4924182;29;20039;-68
2021/10/15 00:33:42;;;;;;;17.98;13.07;;;14.60;98.60;;;;;;4935706;29;20417;-68
2021/10/15 00:36:08;;;;;;;20.00;12.88;;;14.50;98.60;;;;;;4927509;29;20122;-69
2021/10/15 00:38:33;;;;;;;17.63;12.63;;;14.60;98.60;;;;;;4916825;29;20069;-68
2021/10/15 00:40:59;;;;;;;17.35;12.80;;;14.60;98.60;;;;;;4922198;29;20039;-69
2021/10/15 00:43:25;;;;;;;18.85;12.88;;;14.50;98.60;;;;;;4935589;29;20058;-68
2021/10/15 00:45:51;;;;;;;18.23;12.93;;;14.60;98.60;;;;;;4921923;29;20030;-68
2021/10/15 00:48:17;;;;;;;17.85;13.32;;;14.60;98.60;;;;;;4916572;29;20041;-68
2021/10/15 00:50:44;;;;;;;17.38;12.02;;;14.60;98.60;;;;;;4899376;29;20035;-68
2021/10/15 00:53:10;;;;;;;16.08;10.98;;;14.60;98.50;;;;;;4916879;29;20036;-70
2021/10/15 00:55:36;;;;;;;15.57;10.95;;;14.50;98.50;;;;;;4916112;29;20091;-68
2021/10/15 00:58:02;;;;;;;16.48;11.52;;;14.50;98.50;;;;;;4916109;29;20032;-68
2021/10/15 01:00:28;;;;;;;16.40;12.07;;;14.50;98.50;;;;;;4915685;29;20106;-68
2021/10/15 01:02:55;;;;;;;15.13;10.95;;;14.50;98.50;;;;;;4916217;29;20028;-68
2021/10/15 01:05:21;;;;;;;15.50;10.35;;;14.50;98.50;;;;;;4916508;29;20062;-68
2021/10/15 01:07:48;;;;;;;15.10;10.85;;;14.50;98.50;;;;;;4916048;29;20064;-68
2021/10/15 01:10:13;;;;;;;13.85;10.27;;;14.50;98.50;;;;;;4915224;29;20043;-68
2021/10/15 01:12:39;;;;;;;15.63;11.27;;;14.50;98.50;;;;;;4904069;29;20419;-68
2021/10/15 01:15:05;;;;;;;15.55;11.23;;;14.50;98.50;;;;;;4934592;29;20098;-69
2021/10/15 01:17:30;;;;;;;13.95;10.35;;;14.50;98.50;;;;;;4933449;29;20114;-68
2021/10/15 01:19:56;;;;;;;14.57;11.00;;;14.50;98.40;;;;;;4934958;29;20027;-69
2021/10/15 01:22:29;;;;;;;15.68;11.20;;;14.50;98.40;;;;;;4916966;29;20083;-68
2021/10/15 01:24:56;;;;;;;14.45;11.00;;;14.50;98.50;;;;;;4915478;29;20115;-68
2021/10/15 01:27:22;;;;;;;14.50;10.43;;;14.50;98.40;;;;;;4932111;29;20091;-68
2021/10/15 01:29:48;;;;;;;14.75;10.30;;;14.50;98.40;;;;;;4934612;29;20027;-69
2021/10/15 01:32:15;;;;;;;15.75;10.50;;;14.50;98.40;;;;;;4900578;29;20130;-68
2021/10/15 01:34:41;;;;;;;14.05;10.80;;;14.50;98.50;;;;;;4915225;29;20052;-68
2021/10/15 01:37:07;;;;;;;13.43;10.10;;;14.50;98.40;;;;;;4915052;29;20039;-68
2021/10/15 01:39:33;;;;;;;15.90;10.43;;;14.50;98.30;;;;;;4934704;29;20038;-68
2021/10/15 01:41:59;;;;;;;14.27;10.65;;;14.40;98.30;;;;;;4932321;29;20056;-68
2021/10/15 01:44:24;;;;;;;14.98;11.23;;;14.50;98.30;;;;;;4915283;29;20063;-68
2021/10/15 01:46:50;;;;;;;13.48;10.10;;;14.50;98.30;;;;;;4915675;29;20036;-68
2021/10/15 01:49:15;;;;;;;14.20;10.55;;;14.50;98.40;;;;;;4915478;29;20028;-68
2021/10/15 01:51:41;;;;;;;14.25;10.15;;;14.50;98.30;;;;;;4915286;29;20544;-68
2021/10/15 01:54:07;;;;;;;12.63;9.63;;;14.50;98.30;;;;;;4917863;29;20134;-68
2021/10/15 01:56:33;;;;;;;12.68;9.95;;;14.40;98.30;;;;;;4917921;29;20028;-68
2021/10/15 01:58:59;;;;;;;17.27;11.73;;;14.40;98.30;;;;;;4930233;29;20484;-68
2021/10/15 02:01:25;;;;;;;16.08;11.02;;;14.40;98.30;;;;;;4934958;29;20034;-68
2021/10/15 02:03:51;;;;;;;13.43;9.70;;;14.40;98.30;;;;;;4929147;29;20039;-68
2021/10/15 02:06:16;;;;;;;15.02;10.50;;;14.40;98.30;;;;;;4934568;29;20030;-68
2021/10/15 02:08:42;;;;;;;13.10;9.30;;;14.40;98.20;;;;;;4920559;29;20028;-68
2021/10/15 02:11:08;;;;;;;14.48;10.35;;;14.40;98.20;;;;;;4915209;29;20055;-68
2021/10/15 02:13:33;;;;;;;13.95;9.30;;;14.40;98.20;;;;;;4915247;29;20039;-68
2021/10/15 02:15:59;;;;;;;15.07;9.98;;;14.40;98.10;;;;;;4898131;29;20037;-68
2021/10/15 02:18:25;;;;;;;13.43;9.90;;;14.40;98.10;;;;;;4925771;29;20074;-69
2021/10/15 02:20:50;;;;;;;13.05;10.10;;;14.40;98.10;;;;;;4917060;29;20082;-68
2021/10/15 02:23:16;;;;;;;14.82;9.40;;;14.40;98.00;;;;;;4931032;29;20027;-69
2021/10/15 02:25:41;;;;;;;13.10;9.32;;;14.40;98.00;;;;;;4915259;29;20028;-68
2021/10/15 02:28:07;;;;;;;11.90;9.10;;;14.40;98.00;;;;;;4915177;29;20038;-68
2021/10/15 02:30:33;;;;;;;12.40;10.18;;;14.40;98.00;;;;;;4915288;29;20020;-68
2021/10/15 02:32:58;;;;;;;10.90;8.43;;;14.40;98.00;;;;;;4921676;29;20051;-68
2021/10/15 02:35:24;;;;;;;11.00;8.52;;;14.40;97.90;;;;;;4933882;29;20032;-69
2021/10/15 02:37:49;;;;;;;12.05;9.65;;;14.40;97.90;;;;;;4932044;29;20046;-69
2021/10/15 02:40:15;;;;;;;12.27;9.20;;;14.40;97.90;;;;;;4933739;29;20484;-68
2021/10/15 02:42:41;;;;;;;12.25;8.68;;;14.40;97.90;;;;;;4932383;29;20392;-68
2021/10/15 02:45:08;;;;;;;12.13;9.40;;;14.40;97.80;;;;;;4934057;29;20032;-68
2021/10/15 02:47:33;;;;;;;13.30;9.77;;;14.40;97.80;;;;;;4932766;29;20034;-68
2021/10/15 02:49:59;;;;;;;11.30;9.18;;;14.40;97.80;;;;;;4918460;29;20149;-68
2021/10/15 02:52:24;;;;;;;12.65;9.25;;;14.40;97.80;;;;;;4920731;29;20047;-68
2021/10/15 02:54:50;;;;;;;11.85;8.95;;;14.40;97.70;;;;;;4937268;29;20391;-68
2021/10/15 02:57:15;;;;;;;12.32;9.75;;;14.40;97.70;;;;;;4935291;29;20024;-68
2021/10/15 02:59:41;;;;;;;13.65;9.32;;;14.40;97.60;;;;;;4937521;29;20035;-68
2021/10/15 03:02:06;;;;;;;11.00;8.13;;;14.40;97.60;;;;;;4935492;29;20067;-69
2021/10/15 03:04:32;;;;;;;13.63;9.20;;;14.40;97.60;;;;;;4918383;29;20385;-68
2021/10/15 03:06:57;;;;;;;11.13;8.90;;;14.40;97.70;;;;;;4917647;29;20036;-68
2021/10/15 03:09:23;;;;;;;12.68;9.25;;;14.30;97.60;;;;;;4919086;29;20083;-68
2021/10/15 03:11:48;;;;;;;11.48;8.25;;;14.30;97.60;;;;;;4917817;29;20028;-68
2021/10/15 03:14:14;;;;;;;12.27;8.65;;;14.30;97.60;;;;;;4934468;29;20032;-68
2021/10/15 03:16:40;;;;;;;12.75;8.38;;;14.30;97.60;;;;;;4937121;29;20452;-68
2021/10/15 03:19:05;;;;;;;12.73;8.48;;;14.30;97.60;;;;;;4919788;29;20512;-68
2021/10/15 03:21:31;;;;;;;10.75;7.95;;;14.30;97.60;;;;;;4901158;29;20024;-68
2021/10/15 03:23:56;;;;;;;11.18;8.35;;;14.30;97.60;;;;;;4919740;29;20024;-68
2021/10/15 03:26:22;;;;;;;12.13;8.48;;;14.30;97.60;;;;;;4917849;29;20084;-68
2021/10/15 03:28:47;;;;;;;11.13;8.90;;;14.30;97.60;;;;;;4931364;29;20516;-68
2021/10/15 03:31:12;;;;;;;11.35;8.45;;;14.20;97.60;;;;;;4937058;29;20052;-68
2021/10/15 03:33:38;;;;;;;12.50;8.60;;;14.30;97.60;;;;;;4918313;29;20461;-68
2021/10/15 03:36:04;;;;;;;10.52;7.63;;;14.30;97.60;;;;;;4936451;29;20158;-68
2021/10/15 03:38:29;;;;;;;11.10;8.10;;;14.30;97.60;;;;;;4923817;29;20036;-68
2021/10/15 03:40:55;;;;;;;10.38;8.10;;;14.30;97.50;;;;;;4917555;29;20552;-68
2021/10/15 03:43:20;;;;;;;12.23;8.35;;;14.30;97.50;;;;;;4910794;29;20028;-69
2021/10/15 03:45:46;;;;;;;9.07;7.30;;;14.30;97.50;;;;;;4936628;29;20024;-69
2021/10/15 03:48:11;;;;;;;11.07;8.07;;;14.30;97.40;;;;;;4934516;29;20405;-68
2021/10/15 03:50:37;;;;;;;11.25;6.97;;;14.30;97.40;;;;;;4926906;29;20111;-69
2021/10/15 03:53:03;;;;;;;11.30;7.30;;;14.30;97.50;;;;;;4917265;29;20032;-69
2021/10/15 03:55:28;;;;;;;12.43;8.27;;;14.30;97.40;;;;;;4916806;29;20378;-68
2021/10/15 03:57:53;;;;;;;11.15;7.85;;;14.30;97.40;;;;;;4916770;29;20036;-69
2021/10/15 04:00:19;;;;;;;9.75;7.43;;;14.20;97.30;;;;;;4917301;29;20092;-69
2021/10/15 04:02:46;;;;;;;13.68;7.70;;;14.20;97.30;;;;;;4917172;29;20036;-67
2021/10/15 04:05:13;;;;;;;10.73;8.10;;;14.20;97.40;;;;;;4917051;29;20063;-68
2021/10/15 04:07:39;;;;;;;10.57;6.95;;;14.20;97.40;;;;;;4921047;29;20024;-68
2021/10/15 04:10:07;;;;;;;10.98;7.28;;;14.20;97.30;;;;;;4935612;29;20498;-68
2021/10/15 04:12:33;;;;;;;12.50;7.35;;;14.20;97.30;;;;;;4930708;29;20540;-67
2021/10/15 04:14:59;;;;;;;10.50;7.68;;;14.20;97.30;;;;;;4935790;29;20051;-68
2021/10/15 04:17:25;;;;;;;12.27;7.75;;;14.20;97.50;;;;;;4934754;29;20440;-67
2021/10/15 04:19:50;;;;;;;10.93;7.50;;;14.20;97.30;;;;;;4926320;29;20028;-68
2021/10/15 04:22:16;;;;;;;9.65;7.18;;;14.20;97.30;;;;;;4917014;29;20058;-67
2021/10/15 04:24:42;;;;;;;11.45;7.15;;;14.10;97.30;;;;;;4916692;29;20119;-67
2021/10/15 04:27:08;;;;;;;11.73;8.45;;;14.10;97.30;;;;;;4917028;29;20039;-68
2021/10/15 04:29:33;;;;;;;12.68;7.90;;;14.10;97.30;;;;;;4899842;29;20035;-68
2021/10/15 04:31:59;;;;;;;8.95;7.40;;;14.10;97.30;;;;;;4916128;29;20055;-69
2021/10/15 04:34:24;;;;;;;10.50;7.53;;;14.20;97.30;;;;;;4934743;29;20043;-68
2021/10/15 04:36:50;;;;;;;10.20;7.03;;;14.10;97.30;;;;;;4935466;29;20028;-68
2021/10/15 04:39:15;;;;;;;14.85;8.50;;;14.20;97.30;;;;;;4917346;29;20083;-68
2021/10/15 04:41:41;;;;;;;10.35;8.20;;;14.10;97.30;;;;;;4916666;29;20072;-68
2021/10/15 04:44:07;;;;;;;12.18;8.75;;;14.10;97.30;;;;;;4931972;29;20042;-68
2021/10/15 04:46:33;;;;;;;11.23;7.03;;;14.10;97.30;;;;;;4934543;29;20115;-67
2021/10/15 04:48:58;;;;;;;10.48;7.18;;;14.10;97.30;;;;;;4918014;29;20111;-67
2021/10/15 04:51:24;;;;;;;11.23;7.75;;;14.10;97.30;;;;;;4916916;29;20373;-68
2021/10/15 04:53:49;;;;;;;10.18;7.07;;;14.10;97.30;;;;;;4929473;29;20040;-67
2021/10/15 04:56:15;;;;;;;10.40;7.32;;;14.10;97.40;;;;;;4935462;29;20034;-68
2021/10/15 04:58:40;;;;;;;8.77;6.78;;;14.10;97.40;;;;;;4921268;29;20084;-68
2021/10/15 05:01:06;;;;;;;11.65;8.25;;;14.10;97.40;;;;;;4916323;29;20441;-68
2021/10/15 05:03:31;;;;;;;9.25;6.93;;;14.10;97.40;;;;;;4926765;29;20034;-68
2021/10/15 05:05:57;;;;;;;14.00;7.15;;;14.10;97.40;;;;;;4934878;29;20115;-68
2021/10/15 05:08:28;;;;;;;11.98;8.05;;;14.10;97.40;;;;;;4932309;29;20088;-68
2021/10/15 05:10:53;;;;;;;10.00;6.80;;;14.10;97.40;;;;;;4935388;29;20115;-68
2021/10/15 05:13:20;;;;;;;10.90;8.25;;;14.10;97.40;;;;;;4923483;29;20108;-68
2021/10/15 05:15:47;;;;;;;9.93;7.20;;;14.10;97.50;;;;;;4917741;29;20039;-68
2021/10/15 05:18:14;;;;;;;10.73;7.05;;;14.10;97.40;;;;;;4916501;29;20493;-68
2021/10/15 05:20:40;;;;;;;12.02;7.18;;;14.10;97.40;;;;;;4915973;29;20032;-68
2021/10/15 05:23:06;;;;;;;11.43;7.13;;;14.10;97.30;;;;;;4915680;29;20536;-68
2021/10/15 05:25:31;;;;;;;9.15;6.88;;;14.10;97.30;;;;;;4915783;29;20119;-68
2021/10/15 05:27:57;;;;;;;11.38;6.90;;;14.10;97.20;;;;;;4916089;29;20111;-68
2021/10/15 05:30:22;;;;;;;7.72;5.90;;;14.10;97.20;;;;;;4915697;29;20036;-68
2021/10/15 05:32:48;;;;;;;10.15;7.20;;;14.10;97.20;;;;;;4916167;29;20043;-67
2021/10/15 05:35:14;;;;;;;8.57;6.50;;;14.10;97.20;;;;;;4934451;29;20558;-67
2021/10/15 05:37:39;;;;;;;10.13;6.30;;;14.10;97.20;;;;;;4928785;29;20059;-68
2021/10/15 05:40:06;;;;;;;8.77;6.63;;;14.10;97.20;;;;;;4915723;29;20016;-68
2021/10/15 05:42:31;;;;;;;8.35;6.32;;;14.10;97.10;;;;;;4915631;29;20067;-68
2021/10/15 05:44:57;;;;;;;8.65;6.13;;;14.10;97.20;;;;;;4934123;29;20059;-68
2021/10/15 05:47:22;;;;;;;10.98;6.38;;;14.10;97.10;;;;;;4931001;29;20031;-68
2021/10/15 05:49:48;;;;;;;11.18;6.45;;;14.10;97.20;;;;;;4898306;29;20032;-68
2021/10/15 05:52:17;;;;;;;11.10;6.80;;;14.10;97.20;;;;;;4915916;29;20739;-68
2021/10/15 05:54:54;;;;;;;10.38;6.32;;;14.10;97.20;;;;;;4932254;29;20126;-69
2021/10/15 06:00:02;;;;;;;7.53;5.70;;;14.10;97.10;;;;;;4915761;29;20503;-68
2021/10/15 06:02:34;;;;;;;8.38;5.65;;;14.10;97.10;;;;;;4918066;29;20111;-68
2021/10/15 06:09:08;;;;;;;9.27;6.50;;;14.20;97.10;;;;;;4928908;29;20028;-68
2021/10/15 06:15:55;;;;;;;8.85;5.82;;;14.20;97.00;;;;;;4915105;29;20044;-68
2021/10/15 06:18:23;;;;;;;11.18;5.90;;;14.20;97.00;;;;;;4925096;29;20032;-69
2021/10/15 06:20:50;;;;;;;8.55;5.45;;;14.20;97.00;;;;;;4935517;29;20039;-69
2021/10/15 06:23:16;;;;;;;9.60;6.18;;;14.30;97.00;;;;;;4927089;29;20027;-69
2021/10/15 06:25:42;;;;;;;7.60;5.43;;;14.30;97.00;;;;;;4918633;29;20059;-69
2021/10/15 06:28:08;;;;;;;8.73;5.85;;;14.30;97.00;;;;;;4926885;29;20503;-69
2021/10/15 06:30:34;;;;;;;9.25;5.68;;;14.30;97.00;;;;;;4937958;29;20034;-68
2021/10/15 06:33:00;;;;;;;9.18;5.93;;;14.30;97.00;;;;;;4935163;29;20055;-69
2021/10/15 06:35:26;;;;;;;8.52;5.57;;;14.30;97.00;;;;;;4929246;29;20044;-68
2021/10/15 06:37:52;;;;;;;7.80;5.43;;;14.30;96.90;;;;;;4918165;29;20079;-68
2021/10/15 06:40:19;;;;;;;8.05;5.43;;;14.40;96.90;;;;;;4921637;29;20080;-68
2021/10/15 06:42:45;;;;;;;8.65;5.53;;;14.40;96.80;;;;;;4923233;29;20035;-68
2021/10/15 06:45:11;;;;;;;10.32;5.57;;;14.40;96.70;;;;;;4937418;29;20036;-69
2021/10/15 06:47:36;;;;;;;8.63;5.28;;;14.50;96.70;;;;;;4915671;29;20440;-68
2021/10/15 06:50:03;;;;;;;8.35;5.10;;;14.50;96.70;;;;;;4901354;29;20031;-69
2021/10/15 06:52:35;;;;;;;8.90;5.10;;;14.50;96.70;;;;;;4918917;29;20469;-69
2021/10/15 06:55:01;;;;;;;7.60;4.80;;;14.50;96.60;;;;;;4918342;29;20453;-69
2021/10/15 06:57:27;;;;;;;6.18;4.97;;;14.50;96.50;;;;;;4918941;29;20024;-69
2021/10/15 06:59:52;;;;;;;10.98;5.30;;;14.50;96.50;;;;;;4918305;29;20051;-69
2021/10/15 07:02:18;;;;;;;8.35;4.97;;;14.50;96.50;;;;;;4902897;29;20024;-69
2021/10/15 07:04:43;;;;;;;7.25;4.47;;;14.50;96.50;;;;;;4928895;29;20459;-69
2021/10/15 07:07:09;;;;;;;7.63;4.50;;;14.60;96.40;;;;;;4913514;29;20024;-69
2021/10/15 07:09:34;;;;;;;8.57;4.90;;;14.60;96.40;;;;;;4918364;29;20047;-69
2021/10/15 07:12:00;;;;;;;7.25;4.72;;;14.60;96.30;;;;;;4917813;29;20036;-69
2021/10/15 07:14:27;;;;;;;6.35;4.18;;;14.60;96.30;;;;;;4918175;29;20107;-69
2021/10/15 07:16:52;;;;;;;6.05;4.05;;;14.60;96.30;;;;;;4918005;29;20052;-69
2021/10/15 07:19:18;;;;;;;8.13;4.68;;;14.70;96.20;;;;;;4935456;29;20051;-69
2021/10/15 07:21:43;;;;;;;6.75;4.65;;;14.70;96.20;;;;;;4936951;29;20023;-69
2021/10/15 07:24:09;;;;;;;7.55;4.50;;;14.70;96.10;;;;;;4934773;29;20504;-69
2021/10/15 07:26:37;;;;;;;7.25;4.22;;;14.70;96.10;;;;;;4937135;29;20027;-70
2021/10/15 07:29:04;;;;;;;7.13;4.18;;;14.70;96.00;;;;;;4919833;29;20033;-69
2021/10/15 07:31:29;;;;;;;7.50;3.97;;;14.70;96.00;;;;;;4899986;29;20044;-70
2021/10/15 07:33:55;;;;;;;7.57;4.10;;;14.70;96.00;;;;;;4918147;29;20080;-70
2021/10/15 07:36:20;;;;;;;9.05;4.43;;;14.70;95.90;;;;;;4917110;29;20036;-69
2021/10/15 07:38:46;;;;;;;6.60;3.90;;;14.80;95.90;;;;;;4918060;29;20544;-69
2021/10/15 07:41:11;;;;;;;10.43;5.30;;;14.80;95.90;;;;;;4917588;29;20024;-69
2021/10/15 07:43:37;;;;;;;6.38;3.92;;;14.80;95.80;;;;;;4929764;29;20028;-70
2021/10/15 07:46:02;;;;;;;5.22;3.63;;;14.90;95.80;;;;;;4936536;29;20028;-69
2021/10/15 07:48:28;;;;;;;7.18;3.58;;;14.90;95.80;;;;;;4923768;29;20039;-70
2021/10/15 07:50:55;;;;;;;4.72;3.50;;;15.00;95.80;;;;;;4917077;29;20032;-70
2021/10/15 07:53:21;;;;;;;7.55;4.30;;;15.00;95.70;;;;;;4917713;29;20043;-69
2021/10/15 07:55:46;;;;;;;8.23;3.97;;;15.00;95.70;;;;;;4917353;29;20174;-69
2021/10/15 07:58:12;;;;;;;6.05;3.55;;;15.00;95.60;;;;;;4925656;29;20023;-69
2021/10/15 08:00:38;;;;;;;5.85;3.58;;;15.00;95.60;;;;;;4918843;29;20161;-69
2021/10/15 08:03:05;;;;;;;7.30;4.57;;;15.10;95.50;;;;;;4924666;29;20503;-70
2021/10/15 08:05:31;;;;;;;7.22;5.30;;;15.10;95.60;;;;;;4936113;29;20153;-69
2021/10/15 08:07:56;;;;;;;7.78;4.32;;;15.10;95.50;;;;;;4934419;29;20031;-69
2021/10/15 08:10:22;;;;;;;7.72;3.65;;;15.20;95.50;;;;;;4936267;29;20039;-69
2021/10/15 08:12:48;;;;;;;8.88;3.90;;;15.20;95.40;;;;;;4929002;29;20024;-69
2021/10/15 08:15:15;;;;;;;6.43;4.47;;;15.20;95.40;;;;;;4916975;29;20036;-69
2021/10/15 08:17:40;;;;;;;4.93;3.50;;;15.20;95.30;;;;;;4922123;29;20044;-70
2021/10/15 08:20:07;;;;;;;6.25;3.45;;;15.20;95.30;;;;;;4935598;29;20035;-69
2021/10/15 08:22:33;;;;;;;5.97;3.58;;;15.20;95.20;;;;;;4930563;29;20115;-69
2021/10/15 08:24:58;;;;;;;5.35;3.15;;;15.20;95.20;;;;;;4916510;29;20133;-69
2021/10/15 08:27:24;;;;;;;5.50;3.60;;;15.30;95.20;;;;;;4917191;29;20036;-69
2021/10/15 08:29:49;;;;;;;7.25;3.60;;;15.30;95.20;;;;;;4935667;29;20055;-69
2021/10/15 08:32:15;;;;;;;6.20;3.72;;;15.30;95.10;;;;;;4931756;29;20044;-70
2021/10/15 08:34:40;;;;;;;6.63;3.35;;;15.30;95.10;;;;;;4918901;29;20519;-69
2021/10/15 08:37:06;;;;;;;6.07;3.63;;;15.40;95.10;;;;;;4934201;29;20028;-69
2021/10/15 08:39:31;;;;;;;4.85;2.80;;;15.30;95.00;;;;;;4916727;29;20063;-69
2021/10/15 08:41:59;;;;;;;6.25;3.22;;;15.40;95.00;;;;;;4916183;29;20028;-69
2021/10/15 08:44:39;;;;;;;7.30;3.20;;;15.40;94.90;;;;;;4915765;29;20024;-69
2021/10/15 08:47:05;;;;;;;4.35;3.00;;;15.40;95.00;;;;;;4916427;29;20038;-69
2021/10/15 08:49:31;;;;;;;5.68;3.30;;;15.40;95.00;;;;;;4918524;29;20043;-69
2021/10/15 08:51:57;;;;;;;5.68;3.20;;;15.50;94.90;;;;;;4915962;29;20039;-69
2021/10/15 08:54:22;;;;;;;4.88;3.10;;;15.50;94.90;;;;;;4934088;29;20036;-69
2021/10/15 08:56:48;;;;;;;7.07;3.65;;;15.50;94.90;;;;;;4924309;29;20115;-69
2021/10/15 08:59:19;;;;;;;4.68;3.22;;;15.60;94.90;;;;;;4932855;29;20075;-69
2021/10/15 09:01:48;;;;;;;5.90;3.30;;;15.60;94.80;;;;;;4935003;29;20034;-69
2021/10/15 09:04:18;;;;;;;4.50;3.13;;;15.70;94.80;;;;;;4917041;29;20028;-69
2021/10/15 09:06:45;;;;;;;5.60;3.28;;;15.70;94.80;;;;;;4916265;29;20038;-69
2021/10/15 09:09:10;;;;;;;4.72;3.45;;;15.80;94.70;;;;;;4932988;29;20079;-70
2021/10/15 09:11:45;;;;;;;6.40;3.70;;;15.80;94.60;;;;;;4938007;29;20028;-69
2021/10/15 09:14:13;;;;;;;5.35;2.90;;;15.90;94.50;;;;;;4937072;29;20027;-69
2021/10/15 09:16:56;;;;;;;5.88;2.95;;;15.80;94.40;;;;;;4938155;29;20036;-69
2021/10/15 09:19:23;;;;;;;4.97;2.70;;;15.90;94.40;;;;;;4918024;29;20024;-69
2021/10/15 09:22:23;;;;;;;5.68;2.65;;;15.90;94.30;;;;;;4918670;29;20059;-69
2021/10/15 09:25:11;;;;;;;4.97;2.47;;;15.80;94.20;;;;;;4896355;29;20052;-70
2021/10/15 09:27:45;;;;;;;12.23;6.55;;;15.90;94.10;;;;;;4916466;29;20032;-69
2021/10/15 09:30:17;;;;;;;7.20;3.90;;;16.00;94.10;;;;;;4916033;29;20067;-69
2021/10/15 09:32:45;;;;;;;8.57;3.58;;;16.00;94.10;;;;;;4919824;29;20048;-69
2021/10/15 09:35:14;;;;;;;5.80;3.13;;;16.10;94.10;;;;;;4928138;29;20063;-70
2021/10/15 09:37:42;;;;;;;4.60;2.65;;;16.10;94.00;;;;;;4915953;29;20135;-69
2021/10/15 09:40:09;;;;;;;5.07;2.53;;;16.20;94.00;;;;;;4915794;29;20035;-69
2021/10/15 09:42:39;;;;;;;5.40;2.80;;;16.20;93.80;;;;;;4919331;29;20503;-69
2021/10/15 09:45:28;;;;;;;4.43;2.97;;;16.30;93.70;;;;;;4934426;29;20503;-69
2021/10/15 09:47:57;;;;;;;4.47;2.20;;;16.30;93.60;;;;;;4933215;29;20093;-69
2021/10/15 09:50:25;;;;;;;3.88;2.67;;;16.30;93.50;;;;;;4915472;29;20425;-68
2021/10/15 09:52:55;;;;;;;3.95;2.60;;;16.40;93.50;;;;;;4916501;29;20107;-68
2021/10/15 09:55:26;;;;;;;5.10;2.97;;;16.40;93.40;;;;;;4917547;29;20071;-67
2021/10/15 09:57:54;;;;;;;5.97;2.60;;;16.40;93.30;;;;;;4914527;29;20028;-68
2021/10/15 10:00:27;;;;;;;5.50;3.00;;;16.40;93.30;;;;;;4915218;29;20519;-69
2021/10/15 10:02:55;;;;;;;8.38;3.25;;;16.40;93.20;;;;;;4921822;29;20103;-69
2021/10/15 10:05:21;;;;;;;7.10;3.15;;;16.40;93.00;;;;;;4925442;29;20623;-69
2021/10/15 10:07:52;;;;;;;4.35;2.55;;;16.40;93.10;;;;;;4916301;29;20028;-68
2021/10/15 10:10:22;;;;;;;10.23;4.40;;;16.30;93.00;;;;;;4927699;29;20032;-69
2021/10/15 10:12:49;;;;;;;5.53;2.58;;;16.30;93.10;;;;;;4924011;29;20082;-70
2021/10/15 10:15:17;;;;;;;7.90;3.17;;;16.30;92.90;;;;;;4906280;29;20099;-68
2021/10/15 10:18:28;;;;;;;5.03;2.70;;;16.30;93.00;;;;;;4899288;29;20032;-68
2021/10/15 10:21:09;;;;;;;5.40;2.80;;;16.30;93.00;;;;;;4913975;29;20446;-69
2021/10/15 10:23:43;;;;;;;5.50;3.42;;;16.30;92.90;;;;;;4918120;29;20119;-69
2021/10/15 10:26:14;;;;;;;6.38;3.50;;;16.30;92.90;;;;;;4915600;29;20388;-69
2021/10/15 10:28:40;;;;;;;5.75;3.45;;;16.30;92.80;;;;;;4920855;29;20066;-69
2021/10/15 10:31:18;;;;;;;6.13;2.95;;;16.30;92.80;;;;;;4933508;29;20040;-69
2021/10/15 10:33:51;;;;;;;4.38;2.58;;;16.30;92.70;;;;;;4926167;28;20044;-68
2021/10/15 10:36:17;;;;;;;3.45;2.35;;;16.40;92.80;;;;;;4919027;29;20422;-68
2021/10/15 10:38:43;;;;;;;5.15;2.30;;;16.30;92.60;;;;;;4904192;29;20027;-68
2021/10/15 10:41:08;;;;;;;6.15;2.92;;;16.30;92.60;;;;;;4914362;29;20039;-69
2021/10/15 10:43:54;;;;;;;4.13;2.83;;;16.30;92.50;;;;;;4925853;29;20079;-68
2021/10/15 10:46:25;;;;;;;4.30;2.42;;;16.30;92.50;;;;;;4917231;29;20520;-68
2021/10/15 10:48:51;;;;;;;7.43;3.38;;;16.20;92.40;;;;;;4915279;29;20040;-69
2021/10/15 10:51:19;;;;;;;4.97;2.80;;;16.20;92.50;;;;;;4921474;29;20080;-71
2021/10/15 10:54:03;;;;;;;7.60;2.88;;;16.20;92.60;;;;;;4914478;29;20119;-69
2021/10/15 10:56:38;;;;;;;5.95;2.55;;;16.20;92.90;;;;;;4918031;29;20044;-69
2021/10/15 10:59:16;;;;;;;;;;;16.10;93.00;;;;;;4920969;29;20031;-69
2021/10/15 11:01:54;;;;;;;4.43;2.30;;;16.10;93.00;;;;;;4916514;29;20375;-69
2021/10/15 11:04:31;;;;;;;7.28;2.95;;;16.10;93.20;;;;;;4915789;29;20036;-69
2021/10/15 11:07:02;;;;;;;5.60;3.20;;;16.00;93.40;;;;;;4918427;29;20032;-71
2021/10/15 11:09:53;;;;;;;3.90;2.65;;;16.00;93.60;;;;;;4933707;29;20613;-70
2021/10/15 11:12:28;;;;;;;5.43;3.15;;;15.90;93.60;;;;;;4917407;29;20041;-70
2021/10/15 11:14:54;;;;;;;;;;;15.90;93.70;;;;;;4919410;29;20500;-70
2021/10/15 11:17:24;;;;;;;5.47;3.03;;;15.90;93.60;;;;;;4917912;29;19915;-70
2021/10/15 11:20:20;;;;;;;4.97;2.90;;;15.70;93.80;;;;;;4917344;29;20040;-71
2021/10/15 11:22:59;;;;;;;4.57;3.38;;;15.70;94.00;;;;;;4916954;29;20527;-70
2021/10/15 11:25:37;;;;;;;5.95;3.20;;;15.70;94.00;;;;;;4917301;29;20036;-70
2021/10/15 11:28:14;;;;;;;5.63;2.70;;;15.60;94.10;;;;;;4918180;29;20028;-70
2021/10/15 11:30:44;;;;;;;5.63;3.15;;;15.60;94.10;;;;;;4924091;29;20094;-69
2021/10/15 11:33:13;;;;;;;4.68;3.08;;;15.50;94.30;;;;;;4916782;29;20044;-69
2021/10/15 11:35:44;;;;;;;6.38;3.08;;;15.60;94.40;;;;;;4920140;29;20044;-69
2021/10/15 11:38:21;;;;;;;5.47;3.40;;;15.60;94.50;;;;;;4922939;29;20039;-69
2021/10/15 11:40:58;;;;;;;5.65;3.25;;;15.50;94.50;;;;;;4921233;29;20067;-69
2021/10/15 11:43:25;;;;;;;7.47;3.75;;;15.50;94.70;;;;;;4918860;29;20064;-69
2021/10/15 11:45:54;;;;;;;6.70;3.92;;;15.50;94.90;;;;;;4917171;29;20040;-69
2021/10/15 11:48:37;;;;;;;7.30;3.70;;;15.40;95.00;;;;;;4917386;29;20036;-69
2021/10/15 11:51:06;;;;;;;7.20;4.07;;;15.40;95.10;;;;;;4921731;29;20035;-69
2021/10/15 11:53:38;;;;;;;5.32;3.35;;;15.40;95.20;;;;;;4923211;29;20028;-69
2021/10/15 11:56:06;;;;;;;4.00;2.92;;;15.40;95.30;;;;;;4916869;29;20128;-67
2021/10/15 11:58:40;;;;;;;7.72;3.97;;;15.30;95.50;;;;;;4916856;29;20036;-69
2021/10/15 12:01:21;;;;;;;7.32;4.10;;;15.20;95.60;;;;;;4925321;29;20126;-69
2021/10/15 12:04:00;;;;;;;8.63;4.18;;;15.20;95.70;;;;;;4930092;29;20051;-69
2021/10/15 12:06:40;;;;;;;9.00;4.50;;;15.10;95.80;;;;;;4907174;29;20086;-69
2021/10/15 12:09:18;;;;;;;6.93;3.22;;;15.00;95.90;;;;;;4923055;29;20035;-69
2021/10/15 12:12:03;;;;;;;4.65;3.35;;;15.00;96.00;;;;;;4918137;29;20028;-69
2021/10/15 12:14:33;;;;;;;4.53;2.90;;;14.90;96.00;;;;;;4922193;29;20047;-70
2021/10/15 12:17:07;;;;;;;4.50;2.67;;;14.70;96.10;;;;;;4917416;29;20039;-70
2021/10/15 12:19:39;;;;;;;2.65;2.00;;;14.60;95.90;;;;;;4924725;29;20020;-71
2021/10/15 12:22:18;;;;;;;4.25;2.03;;;14.50;96.00;;;;;;4928125;29;20157;-70
2021/10/15 12:24:49;;;;;;;5.68;1.92;;;14.40;96.10;;;;;;4924356;29;20033;-69
2021/10/15 12:27:21;;;;;;;3.15;1.95;;;14.40;96.10;;;;;;4916916;29;20043;-70
2021/10/15 12:29:59;;;;;;;2.90;2.00;;;14.30;96.20;;;;;;4910892;29;20028;-70
2021/10/15 12:32:32;;;;;;;2.47;1.65;;;14.30;96.30;;;;;;4915742;29;20050;-70
2021/10/15 12:35:07;;;;;;;2.60;1.70;;;14.20;96.20;;;;;;4915875;29;20036;-69
2021/10/15 12:37:46;;;;;;;4.70;1.90;;;14.10;96.30;;;;;;4901627;29;20488;-69
2021/10/15 12:40:16;;;;;;;3.30;1.73;;;14.10;96.20;;;;;;4924443;29;20066;-69
2021/10/15 12:42:47;;;;;;;3.47;1.50;;;14.10;96.20;;;;;;4917459;29;20040;-69
2021/10/15 12:45:15;;;;;;;2.30;1.40;;;14.00;95.90;;;;;;4918903;29;20103;-68
2021/10/15 12:47:53;;;;;;;3.30;1.65;;;14.00;95.90;;;;;;4920294;29;20028;-68
2021/10/15 12:50:19;;;;;;;2.60;1.30;;;13.90;95.90;;;;;;4914993;29;20029;-68
2021/10/15 12:52:45;;;;;;;3.42;2.28;;;13.90;96.00;;;;;;4927057;29;20055;-71
2021/10/15 12:55:17;;;;;;;4.00;2.00;;;13.80;96.10;;;;;;4913312;29;20078;-68
2021/10/15 12:57:44;;;;;;;2.95;1.75;;;13.80;96.20;;;;;;4923535;29;20034;-69